Sant Julià de Vilatorta





Hora UTC 23:20
Temperatura 7.3 ºC
Humitat 97.6 %
Pressió 1024.8 hPa
Pluja 0.0 mm
Velocitat vent 2.2 km/h
Direcció vent SE
Radiació solar 0.0 W/m²

Dades diàries 2020-10-29



Hora UTC (hivern +1h; estiu +2h)
Temperatura (ºC) Humitat (%) Pressió (hPa) Velocitat vent (km/h) Precipitació (mm) Radiació solar (W/m²)
Hora UTC Aire Humitat Pressió Vel. Dir. Vel. Max Dir. Intent. màx 5 min. Rad. Sol.
00:05 6.1 96.6 1022.5 2.6 SSE 2.6 SE 0.0 0.0
00:10 6.1 96.6 1022.6 1.7 ESE 3.3 SE 0.0 0.0
00:15 6.1 96.7 1022.6 1.3 SSE 2.3 SE 0.0 0.1
00:20 6.1 96.8 1022.6 2.2 SSE 3.6 SE 0.0 0.0
00:25 6.0 96.8 1022.5 2.6 SE 4.6 SE 0.0 0.0
00:30 6.1 97.0 1022.5 2.6 SE 4.9 SE 0.0 0.0
00:35 6.1 97.0 1022.5 2.1 SSE 3.4 SSE 0.0 0.0
00:40 6.0 97.0 1022.5 2.5 SE 5.3 SE 0.0 0.0
00:45 5.9 97.0 1022.6 3.2 ENE 4.7 ENE 0.0 0.0
00:50 5.8 97.1 1022.8 3.7 E 5.4 E 0.0 0.0
00:55 5.9 97.2 1022.8 2.1 SE 3.9 SE 0.0 0.0
01:00 5.9 97.3 1022.8 3.7 SSE 5.1 SE 0.0 0.0
01:05 5.7 97.1 1022.8 2.4 SE 4.0 SE 0.0 0.0
01:10 5.7 97.3 1022.8 2.3 ESE 3.5 E 0.0 0.0
01:15 5.8 97.3 1022.9 3.0 E 4.0 E 0.0 0.0
01:20 5.8 97.4 1022.8 1.9 SE 3.2 ESE 0.0 0.0
01:25 5.8 97.4 1022.9 2.3 ESE 3.5 ESE 0.0 0.0
01:30 5.7 97.4 1022.9 1.8 SE 2.5 E 0.0 0.0
01:35 5.7 97.4 1022.9 2.4 E 3.4 E 0.0 0.0
01:40 5.7 97.5 1022.9 2.6 SSE 4.1 SSE 0.0 0.0
01:45 5.7 97.5 1022.8 2.4 SE 3.8 SE 0.0 0.0
01:50 5.6 97.4 1022.8 2.3 SSE 3.1 SE 0.0 0.0
01:55 5.5 97.4 1022.7 3.2 SSE 4.5 SE 0.0 0.0
02:00 5.5 97.4 1022.6 4.0 SSE 5.8 SE 0.0 0.0
02:05 5.5 97.4 1022.5 2.2 SE 3.8 SSE 0.0 0.0
02:10 5.4 97.3 1022.7 1.1 NE 1.9 NE 0.0 0.0
02:15 5.4 97.4 1022.6 2.1 ESE 3.1 ESE 0.0 0.0
02:20 5.6 97.6 1022.5 2.3 ESE 4.8 ESE 0.0 0.0
02:25 5.5 97.5 1022.3 3.5 E 4.9 E 0.0 0.0
02:30 5.6 97.7 1022.3 2.2 ESE 3.9 ESE 0.0 0.1
02:35 5.6 97.7 1022.3 1.4 ESE 2.7 E 0.0 0.0
02:40 5.6 97.7 1022.4 2.3 ENE 4.5 ENE 0.0 0.0
02:45 5.6 97.7 1022.6 2.9 E 4.6 ENE 0.0 0.0
02:50 5.6 97.7 1022.6 2.0 SSE 4.3 ENE 0.0 0.0
02:55 5.4 97.7 1022.7 1.5 SE 2.6 S 0.0 0.0
03:00 5.4 97.7 1022.8 1.8 SSE 3.9 SSW 0.0 0.0
03:05 5.3 97.7 1022.8 2.4 SE 5.0 SW 0.0 0.0
03:10 5.3 97.7 1022.6 3.9 SSE 5.8 ESE 0.0 0.0
03:15 5.3 97.7 1022.5 3.2 SSE 4.7 SE 0.0 0.0
03:20 5.3 97.7 1022.6 2.4 ESE 4.8 SE 0.0 0.0
03:25 5.3 97.7 1022.6 1.6 E 4.4 ENE 0.0 0.1
03:30 5.4 97.8 1022.7 3.1 ESE 4.8 ENE 0.0 0.2
03:35 5.4 97.8 1022.6 1.8 SE 4.0 SE 0.0 0.0
03:40 5.4 97.9 1022.5 3.2 ESE 5.5 ESE 0.0 0.1
03:45 5.5 97.9 1022.6 1.8 SE 2.8 SE 0.0 0.1
03:50 5.6 98.0 1022.7 1.3 ENE 2.0 NE 0.0 0.0
03:55 5.7 98.0 1022.9 1.9 ENE 3.1 ENE 0.0 0.5
04:00 5.8 98.0 1023.0 2.1 E 3.7 E 0.0 0.7
04:05 5.9 98.0 1023.1 2.3 ESE 3.6 ENE 0.0 0.6
04:10 5.9 98.0 1023.2 1.2 ESE 2.7 S 0.0 0.2
04:15 5.9 98.0 1023.2 2.5 SSE 4.7 SSE 0.0 0.2
04:20 6.1 98.1 1023.1 1.7 E 4.2 SE 0.0 0.2
04:25 6.2 98.1 1023.1 3.0 SSE 5.4 SSE 0.0 0.1
04:30 6.3 98.1 1023.1 3.4 SSE 5.0 SE 0.0 0.3
04:35 6.5 98.1 1023.2 4.1 ENE 6.3 NE 0.0 0.4
04:40 6.9 98.2 1023.3 2.8 ESE 5.1 SSW 0.0 0.5
04:45 6.9 98.0 1023.3 2.4 SE 5.2 S 0.0 0.1
04:50 6.9 97.9 1023.3 1.8 SE 2.8 E 0.0 0.2
04:55 7.1 97.9 1023.3 2.7 ESE 4.1 SE 0.0 0.2
05:00 7.2 97.8 1023.3 1.7 SSE 3.1 SSE 0.0 0.2
05:05 7.1 97.7 1023.5 0.8 NW 1.9 N 0.0 0.0
05:10 7.2 97.7 1023.6 1.1 NE 3.1 S 0.0 0.2
05:15 7.2 97.6 1023.5 2.9 SE 4.0 SE 0.0 0.2
05:20 7.3 97.5 1023.4 2.2 S 3.2 SSW 0.0 0.2
05:25 7.3 97.4 1023.5 1.3 SSW 2.6 SSW 0.0 0.1
05:30 7.4 97.3 1023.5 1.7 WNW 3.4 NW 0.0 0.0
05:35 7.4 97.3 1023.6 1.8 WNW 3.0 NW 0.0 0.1
05:40 7.5 97.3 1023.6 1.3 S 2.8 WNW 0.0 0.2
05:45 7.5 97.3 1023.6 1.5 SSE 2.5 SSW 0.0 0.1
05:50 7.6 97.2 1023.5 2.8 S 4.0 SSE 0.0 0.1
05:55 7.6 97.2 1023.4 2.1 SSE 3.6 SSE 0.0 0.0
06:00 7.6 97.2 1023.4 2.0 SSW 3.0 SSW 0.0 0.2
06:05 7.7 97.1 1023.4 0.8 S 2.2 SSE 0.0 0.2
06:10 7.7 97.1 1023.4 0.7 ENE 1.2 NE 0.0 0.7
06:15 7.7 97.1 1023.4 1.1 ENE 2.2 ENE 0.0 0.6
06:20 7.7 97.1 1023.5 1.8 ESE 2.7 ESE 0.0 1.1
06:25 7.8 97.1 1023.4 2.1 SSE 2.8 SE 0.0 1.7
06:30 7.8 97.2 1023.5 1.6 ENE 3.2 ESE 0.0 2.4
06:35 7.9 97.1 1023.5 1.7 ESE 3.5 E 0.0 3.6
06:40 8.0 97.1 1023.7 1.4 N 3.0 NNW 0.0 5.4
06:45 8.1 97.2 1023.8 1.3 N 3.2 NW 0.0 10.2
06:50 8.1 97.1 1023.8 0.5 NNE 1.3 NNE 0.0 17.9
06:55 8.2 97.1 1023.9 1.9 NNE 2.9 NE 0.0 15.1
07:00 8.2 97.1 1024.0 2.3 NNE 3.7 NNE 0.0 13.8
07:05 8.3 97.0 1024.2 1.5 N 3.3 N 0.0 14.8
07:10 8.4 97.0 1024.2 1.2 SW 2.4 SW 0.0 20.8
07:15 8.4 96.7 1024.2 1.5 S 2.4 SSE 0.0 32.1
07:20 8.5 96.7 1024.2 1.5 SE 2.5 SE 0.0 39.3
07:25 8.6 96.7 1024.3 2.0 E 4.5 ESE 0.0 53.2
07:30 8.8 96.6 1024.3 1.4 SE 2.7 S 0.0 65.0
07:35 9.0 96.3 1024.4 1.5 NNE 3.1 NNE 0.0 65.4
07:40 9.1 96.0 1024.2 1.4 S 3.0 SSW 0.0 80.1
07:45 9.2 95.5 1024.2 1.9 SW 2.8 SW 0.0 92.2
07:50 9.3 95.3 1024.3 1.6 WNW 3.2 W 0.0 95.5
07:55 9.4 95.0 1024.3 1.6 SSW 3.0 SSW 0.0 70.5
08:00 9.3 94.4 1024.3 1.5 SSW 3.2 SW 0.0 78.1
08:05 9.3 94.3 1024.3 1.7 WNW 2.6 WNW 0.0 68.7
08:10 9.3 94.6 1024.3 1.9 WNW 2.8 W 0.0 63.2
08:15 9.2 94.4 1024.3 2.1 NW 3.8 WNW 0.0 63.4
08:20 9.2 94.4 1024.3 0.9 NW 2.4 N 0.0 91.6
08:25 9.3 94.4 1024.3 0.9 WNW 1.7 E 0.0 103.5
08:30 9.4 94.2 1024.3 2.3 NW 4.1 NW 0.0 143.4
08:35 9.5 93.8 1024.3 3.3 NNW 5.9 NNW 0.0 185.2
08:40 9.6 93.6 1024.4 3.2 NW 5.8 NNW 0.0 182.1
08:45 10.0 93.5 1024.4 2.6 NW 4.1 NW 0.0 181.8
08:50 10.1 92.2 1024.5 2.8 NNW 4.0 NW 0.0 175.6
08:55 10.2 91.5 1024.5 2.9 NNW 4.6 NW 0.0 169.9
09:00 10.4 90.7 1024.7 4.5 NNW 6.8 N 0.0 168.2
09:05 10.5 90.5 1024.9 5.1 NNW 8.3 NNE 0.0 343.3
09:10 10.7 89.5 1024.9 6.5 NNE 9.4 NNE 0.0 310.0
09:15 10.8 88.2 1025.0 5.6 N 9.1 NNE 0.0 170.1
09:20 10.9 87.9 1025.1 4.7 NNE 7.4 0.0 179.7
09:25 11.1 88.3 1025.1 3.6 NNE 5.9 NNE 0.0 188.3
09:30 11.1 87.7 1025.1 2.8 N 4.5 NNW 0.0 178.8
09:35 11.4 88.1 1025.0 1.9 NNW 3.6 N 0.0 292.9
09:40 12.1 86.3 1025.0 2.0 SW 3.7 SW 0.0 468.7
09:45 12.8 81.9 1025.0 1.8 WNW 4.2 NNW 0.0 489.6
09:50 13.3 79.7 1025.0 2.4 NNW 4.5 NW 0.0 562.5
09:55 13.5 77.5 1024.9 2.5 NW 4.6 NW 0.0 493.1
10:00 13.7 77.3 1024.9 2.3 NNW 5.7 NW 0.0 488.7
10:05 13.7 76.9 1024.9 4.3 NW 6.8 NW 0.0 386.4
10:10 13.6 77.2 1025.0 4.8 NNW 8.1 NNW 0.0 554.5
10:15 13.7 77.4 1025.0 4.2 NW 7.2 NW 0.0 549.5
10:20 13.9 77.0 1024.9 4.6 NW 8.5 NNW 0.0 538.4
10:25 13.8 76.8 1024.9 5.3 NW 8.3 NW 0.0 536.0
10:30 13.8 76.9 1024.9 5.7 NW 11.0 NW 0.0 537.4
10:35 13.9 77.0 1024.9 6.8 NNW 11.3 NNW 0.0 542.6
10:40 13.9 76.8 1024.8 6.9 NNW 11.9 N 0.0 548.6
10:45 14.2 76.3 1024.8 7.0 NNW 11.5 NNW 0.0 553.4
10:50 14.1 75.4 1024.8 6.1 N 9.9 N 0.0 552.7
10:55 14.0 75.0 1024.8 6.5 NNW 12.1 NNW 0.0 561.3
11:00 14.1 75.5 1024.8 6.8 NNW 13.7 NNW 0.0 569.1
11:05 14.3 74.4 1024.7 6.9 NNW 10.0 N 0.0 563.4
11:10 14.4 74.2 1024.6 5.9 NNW 10.5 NNW 0.0 536.2
11:15 14.4 74.0 1024.6 4.9 NNW 9.6 NNW 0.0 525.1
11:20 14.7 73.8 1024.5 5.7 NNW 9.4 NW 0.0 573.3
11:25 14.8 72.6 1024.5 5.5 NNW 9.3 NW 0.0 555.0
11:30 14.9 72.9 1024.4 8.4 NNW 11.7 NNW 0.0 562.2
11:35 15.1 73.3 1024.3 5.9 NW 10.4 NNW 0.0 560.4
11:40 15.3 71.6 1024.2 5.0 NNW 10.4 NNW 0.0 528.3
11:45 15.2 71.7 1024.2 5.4 N 9.5 N 0.0 558.4
11:50 15.4 71.5 1024.2 5.8 N 11.6 NNW 0.0 569.3
11:55 15.5 69.6 1024.1 7.1 NNW 10.9 N 0.0 561.2
12:00 15.5 69.3 1024.0 6.3 N 10.1 NNW 0.0 519.6
12:05 15.6 68.5 1024.0 6.9 NNW 12.2 N 0.0 513.4
12:10 15.5 68.9 1024.0 8.2 NNW 15.1 NNW 0.0 470.1
12:15 15.5 69.8 1024.0 9.7 N 14.2 NNW 0.0 538.2
12:20 15.5 69.5 1024.0 6.6 N 13.2 NNW 0.0 574.3
12:25 15.7 69.5 1024.0 7.1 NNW 12.3 N 0.0 546.1
12:30 16.0 67.5 1023.9 9.0 NNW 18.0 NNW 0.0 571.7
12:35 16.0 67.2 1023.8 5.5 NNW 10.4 NNW 0.0 570.5
12:40 16.0 66.1 1023.8 9.5 NNW 16.1 NW 0.0 475.7
12:45 15.8 65.5 1023.7 4.5 N 9.4 NNE 0.0 515.0
12:50 16.1 66.6 1023.7 4.7 NW 11.9 N 0.0 555.9
12:55 16.2 64.5 1023.7 6.3 NNW 14.0 N 0.0 545.6
13:00 16.3 65.3 1023.7 6.1 NW 14.4 NNW 0.0 521.3
13:05 16.3 63.2 1023.7 7.5 N 13.4 N 0.0 505.3
13:10 16.3 63.4 1023.6 6.0 NNW 11.3 NW 0.0 378.3
13:15 16.3 62.6 1023.6 9.2 NW 15.9 NNW 0.0 314.3
13:20 16.1 64.1 1023.6 10.3 NNW 15.9 N 0.0 522.5
13:25 16.2 64.4 1023.6 7.8 NNW 14.1 NW 0.0 494.9
13:30 16.3 62.7 1023.5 7.1 NW 12.9 NW 0.0 484.8
13:35 16.4 63.2 1023.5 9.0 NW 18.4 N 0.0 435.8
13:40 16.4 63.3 1023.5 9.5 N 14.8 NNW 0.0 417.3
13:45 16.4 63.3 1023.4 7.8 NNW 12.2 NNW 0.0 423.2
13:50 16.3 64.0 1023.4 8.4 NNW 14.8 N 0.0 432.3
13:55 16.1 63.8 1023.4 7.8 N 14.9 N 0.0 416.4
14:00 16.1 63.8 1023.4 9.5 NNW 16.8 NNW 0.0 386.1
14:05 16.0 64.0 1023.4 7.2 NNW 11.4 N 0.0 390.5
14:10 16.2 64.2 1023.4 6.7 NNW 12.3 NNW 0.0 382.4
14:15 16.3 64.1 1023.5 8.4 NW 13.8 NW 0.0 272.1
14:20 16.3 62.7 1023.5 8.0 NNW 17.5 NW 0.0 96.7
14:25 16.3 62.0 1023.5 6.6 NW 10.9 NNW 0.0 86.8
14:30 16.3 62.3 1023.5 6.8 NW 12.2 W 0.0 109.9
14:35 16.4 62.2 1023.4 7.2 NW 13.3 NNW 0.0 99.6
14:40 16.4 62.1 1023.5 5.2 NW 9.8 NNW 0.0 94.2
14:45 16.3 63.1 1023.5 5.8 NW 11.5 NW 0.0 78.0
14:50 16.3 63.1 1023.4 6.4 NNW 10.9 NNW 0.0 94.1
14:55 16.2 63.8 1023.5 6.4 NNW 9.7 N 0.0 109.5
15:00 16.2 63.1 1023.5 3.8 NNE 8.6 N 0.0 97.7
15:05 16.3 62.9 1023.5 4.5 NW 8.9 WNW 0.0 70.4
15:10 16.2 62.7 1023.5 6.4 NW 11.1 NNW 0.0 99.8
15:15 16.2 62.1 1023.5 3.9 N 7.2 NNE 0.0 77.9
15:20 16.3 62.1 1023.6 4.4 NNW 9.0 NW 0.0 70.0
15:25 16.3 62.2 1023.6 4.8 NNW 9.4 N 0.0 65.8
15:30 16.3 62.6 1023.6 4.9 NNW 8.0 NW 0.0 62.8
15:35 16.3 61.5 1023.6 5.8 NNW 9.3 NW 0.0 65.6
15:40 16.3 60.6 1023.5 5.9 NNW 9.6 NW 0.0 53.1
15:45 16.2 62.5 1023.6 4.8 NNW 7.2 NW 0.0 50.2
15:50 16.1 63.4 1023.5 5.3 NNW 7.1 NW 0.0 47.1
15:55 16.0 63.6 1023.5 5.0 N 7.6 N 0.0 42.9
16:00 16.0 64.1 1023.6 4.9 N 9.2 N 0.0 41.8
16:05 15.8 65.3 1023.6 5.0 N 7.4 N 0.0 35.8
16:10 15.8 65.9 1023.6 2.7 NNE 4.8 NNE 0.0 30.4
16:15 15.5 67.8 1023.6 2.3 NNE 4.1 NNE 0.0 26.9
16:20 15.2 68.7 1023.6 2.7 NNE 4.4 NNE 0.0 24.3
16:25 14.9 70.9 1023.6 3.3 NNE 4.8 NNE 0.0 22.5
16:30 14.7 71.5 1023.5 2.8 NE 3.8 NE 0.0 20.9
16:35 14.6 71.8 1023.6 2.2 NE 3.9 NE 0.0 15.7
16:40 14.4 72.7 1023.6 1.9 ESE 3.8 ESE 0.0 11.5
16:45 14.1 74.1 1023.6 2.8 SE 5.1 ESE 0.0 8.0
16:50 13.9 75.2 1023.6 2.6 ESE 4.6 ESE 0.0 4.8
16:55 13.6 76.7 1023.6 1.6 ESE 3.0 ESE 0.0 3.2
17:00 13.3 78.3 1023.7 3.2 E 4.5 E 0.0 3.4
17:05 13.0 79.8 1023.8 3.2 ESE 5.4 ESE 0.0 1.7
17:10 12.7 80.9 1023.8 2.0 SE 3.4 E 0.0 0.1
17:15 12.5 81.8 1023.8 1.7 SE 2.8 SE 0.0 0.0
17:20 12.3 82.8 1023.8 2.9 ESE 5.0 ESE 0.0 0.0
17:25 12.1 83.5 1023.9 3.0 ESE 5.6 ESE 0.0 0.0
17:30 11.9 84.1 1023.9 2.6 ESE 3.9 ESE 0.0 0.0
17:35 11.7 84.5 1023.9 3.2 ESE 4.4 ESE 0.0 0.0
17:40 11.6 84.8 1023.9 2.5 ESE 3.9 ESE 0.0 0.0
17:45 11.4 85.3 1024.0 3.8 ESE 5.5 E 0.0 0.0
17:50 11.3 85.7 1024.0 2.6 ESE 4.0 SE 0.0 0.0
17:55 11.1 86.2 1024.1 3.2 ESE 4.5 ESE 0.0 0.0
18:00 11.0 86.6 1024.1 2.2 SSW 4.4 SW 0.0 0.0
18:05 10.8 86.9 1024.2 2.1 SE 4.4 SE 0.0 0.0
18:10 10.6 87.5 1024.2 2.3 SE 3.2 ESE 0.0 0.0
18:15 10.5 88.1 1024.3 2.2 ESE 3.7 ESE 0.0 0.0
18:20 10.3 88.3 1024.3 2.9 E 4.5 E 0.0 0.1
18:25 10.1 89.1 1024.3 2.6 ESE 4.3 ENE 0.0 0.2
18:30 10.2 89.9 1024.3 1.6 SE 3.2 ESE 0.0 0.2
18:35 10.2 89.9 1024.4 1.2 SSE 2.1 SSE 0.0 0.0
18:40 10.2 89.8 1024.4 1.3 SE 2.3 SE 0.0 0.1
18:45 10.1 89.9 1024.4 1.4 SE 2.0 SE 0.0 0.0
18:50 10.0 89.8 1024.3 2.0 SE 3.7 SSE 0.0 0.0
18:55 9.9 90.0 1024.3 1.8 SE 3.8 SE 0.0 0.0
19:00 9.7 90.6 1024.3 2.6 ESE 3.4 ESE 0.0 0.0
19:05 9.6 91.5 1024.3 2.7 ESE 3.8 E 0.0 0.0
19:10 9.6 92.3 1024.3 2.3 ESE 3.5 ESE 0.0 0.0
19:15 9.5 92.6 1024.3 2.1 ESE 3.0 ESE 0.0 0.0
19:20 9.5 92.8 1024.3 1.8 ESE 2.7 ESE 0.0 0.0
19:25 9.5 93.1 1024.3 1.6 SE 2.6 SE 0.0 0.0
19:30 9.4 93.1 1024.3 1.4 SSE 3.8 SSE 0.0 0.0
19:35 9.3 93.0 1024.3 1.8 SSE 3.5 SE 0.0 0.0
19:40 9.2 93.3 1024.3 2.0 SE 4.0 SSE 0.0 0.0
19:45 9.1 93.5 1024.3 2.8 ESE 4.2 E 0.0 0.0
19:50 9.1 93.9 1024.3 1.8 SSE 4.8 SSE 0.0 0.0
19:55 9.1 93.8 1024.3 1.3 SSE 4.0 SE 0.0 0.0
20:00 9.0 94.0 1024.3 1.0 SE 2.6 SSE 0.0 0.0
20:05 8.9 94.3 1024.3 1.4 SE 2.3 SE 0.0 0.0
20:10 8.9 94.4 1024.3 1.1 SE 2.2 SE 0.0 0.0
20:15 8.8 94.6 1024.3 1.7 ESE 2.6 E 0.0 0.0
20:20 8.8 94.8 1024.3 1.5 SE 2.3 SE 0.0 0.0
20:25 8.7 94.9 1024.4 1.6 SE 2.4 SE 0.0 0.0
20:30 8.7 95.1 1024.4 1.0 SE 1.8 ESE 0.0 0.0
20:35 8.6 95.3 1024.5 1.5 SE 2.8 SE 0.0 0.0
20:40 8.6 95.5 1024.6 1.9 SE 3.1 SE 0.0 0.0
20:45 8.5 95.6 1024.6 1.2 SE 2.1 SSE 0.0 0.0
20:50 8.4 95.7 1024.6 1.3 ESE 2.0 SE 0.0 0.0
20:55 8.4 95.8 1024.7 1.7 ESE 2.9 ESE 0.0 0.0
21:00 8.3 96.0 1024.7 1.2 SE 2.2 ESE 0.0 0.0
21:05 8.3 96.1 1024.7 1.6 SE 2.8 SE 0.0 0.0
21:10 8.2 96.1 1024.6 2.1 SE 3.3 SSE 0.0 0.0
21:15 8.1 96.1 1024.7 1.7 ESE 2.7 ESE 0.0 0.0
21:20 8.1 96.3 1024.7 1.5 SSE 2.3 SSE 0.0 0.0
21:25 8.1 96.4 1024.7 1.5 SSE 2.3 SE 0.0 0.0
21:30 8.0 96.4 1024.7 2.0 SSE 3.6 SSE 0.0 0.0
21:35 7.9 96.4 1024.8 1.4 SE 2.2 SE 0.0 0.0
21:40 7.9 96.5 1024.8 1.9 SE 3.1 SE 0.0 0.1
21:45 7.9 96.7 1024.8 1.8 SE 2.7 SE 0.0 0.0
21:50 7.9 96.8 1024.8 1.6 SE 2.4 ESE 0.0 0.0
21:55 7.8 96.6 1024.8 1.8 SE 2.4 SE 0.0 0.0
22:00 7.7 96.7 1024.8 1.9 ESE 2.8 ESE 0.0 0.0
22:05 7.7 96.9 1024.8 2.1 ESE 3.5 ESE 0.0 0.0
22:10 7.7 97.0 1024.8 1.5 SE 2.9 ESE 0.0 0.0
22:15 7.8 97.1 1024.8 1.8 SSE 2.7 SSE 0.0 0.0
22:20 7.6 96.9 1024.8 1.1 ESE 1.6 ESE 0.0 0.0
22:25 7.5 96.9 1024.8 1.5 ENE 2.6 ENE 0.0 0.0
22:30 7.5 97.1 1024.8 2.7 ENE 4.0 ENE 0.0 0.1
22:35 7.5 97.2 1024.8 1.8 SE 3.5 E 0.0 0.0
22:40 7.4 97.2 1024.8 1.8 SE 2.8 SE 0.0 0.0
22:45 7.3 97.2 1024.8 1.8 ESE 3.0 E 0.0 0.0
22:50 7.3 97.3 1024.8 2.3 ESE 3.2 E 0.0 0.1
22:55 7.3 97.4 1024.8 1.2 SE 2.5 ESE 0.0 0.0
23:00 7.2 97.4 1024.8 1.3 E 2.1 ESE 0.0 0.0
23:05 7.2 97.4 1024.9 2.4 ESE 4.1 ESE 0.0 0.2
23:10 7.3 97.6 1024.8 1.9 SE 2.6 SE 0.0 0.0
23:15 7.3 97.6 1024.8 1.3 SE 2.3 SE 0.0 0.0
23:20 7.3 97.6 1024.8 2.2 SE 3.9 ESE 0.0 0.0
Màxima 16.5 98.2 1025.1 10.3 NNW 18.4 N 0.0 574.3
Mínima 5.2 60.6 1022.3
Total 0.0